createdAt,value
2022-11-16T00:02:15.332Z,120.88
2022-11-16T00:04:42.319Z,119.38
2022-11-16T00:07:09.390Z,126.65
2022-11-16T00:09:36.697Z,118.65
2022-11-16T00:12:06.697Z,117.40
2022-11-16T00:14:35.453Z,116.90
2022-11-16T00:17:02.869Z,119.60
2022-11-16T00:19:30.336Z,119.10
2022-11-16T00:21:56.891Z,112.60
2022-11-16T00:24:24.102Z,120.47
2022-11-16T00:26:54.569Z,124.28
2022-11-16T00:29:24.819Z,121.07
2022-11-16T00:31:51.992Z,119.63
2022-11-16T00:34:18.886Z,119.75
2022-11-16T00:36:46.476Z,117.80
2022-11-16T00:39:14.964Z,122.28
2022-11-16T00:42:01.030Z,122.40
2022-11-16T00:44:27.752Z,121.28
2022-11-16T00:46:54.301Z,118.20
2022-11-16T00:49:20.939Z,119.78
2022-11-16T00:51:47.486Z,121.20
2022-11-16T00:54:14.204Z,119.75
2022-11-16T00:56:41.214Z,123.13
2022-11-16T00:59:07.997Z,124.00
2022-11-16T01:01:34.721Z,121.22
2022-11-16T01:04:01.466Z,122.55
2022-11-16T01:06:28.006Z,121.97
2022-11-16T01:08:54.579Z,119.47
2022-11-16T01:11:39.921Z,121.25
2022-11-16T01:14:09.125Z,119.85
2022-11-16T01:16:35.761Z,114.97
2022-11-16T01:19:02.916Z,120.28
2022-11-16T01:21:29.627Z,119.38
2022-11-16T01:23:57.217Z,115.20
2022-11-16T01:26:24.374Z,112.75
2022-11-16T01:28:51.190Z,112.28
2022-11-16T01:31:18.006Z,110.13
2022-11-16T01:33:44.608Z,114.93
2022-11-16T01:36:14.839Z,113.40
2022-11-16T01:38:46.548Z,115.65
2022-11-16T01:41:15.727Z,113.72
2022-11-16T01:44:26.930Z,115.70
2022-11-16T01:46:53.617Z,116.53
2022-11-16T01:49:24.223Z,115.05
2022-11-16T01:51:55.559Z,119.85
2022-11-16T01:54:22.086Z,113.80
2022-11-16T01:56:52.685Z,118.20
2022-11-16T01:59:19.521Z,114.88
2022-11-16T02:01:46.032Z,116.05
2022-11-16T02:04:13.975Z,114.50
2022-11-16T02:06:46.645Z,110.90
2022-11-16T02:09:55.994Z,99.38
2022-11-16T02:12:22.658Z,96.53
2022-11-16T02:15:03.573Z,96.63
2022-11-16T02:17:47.662Z,97.05
2022-11-16T02:20:50.012Z,94.95
2022-11-16T02:24:13.797Z,92.30
2022-11-16T02:26:55.316Z,82.57
2022-11-16T02:29:54.578Z,77.30
2022-11-16T02:32:28.704Z,74.25
2022-11-16T02:35:20.057Z,72.28
2022-11-16T02:37:55.473Z,69.20
2022-11-16T02:40:26.740Z,70.75
2022-11-16T02:43:01.224Z,71.15
2022-11-16T02:45:32.758Z,69.82
2022-11-16T02:48:08.724Z,66.82
2022-11-16T02:50:37.165Z,68.22
2022-11-16T02:53:04.171Z,73.07
2022-11-16T02:55:34.101Z,76.55
2022-11-16T02:58:07.109Z,75.07
2022-11-16T03:01:10.170Z,75.40
2022-11-16T03:03:47.542Z,77.25
2022-11-16T03:06:20.941Z,78.53
2022-11-16T03:09:05.926Z,69.57
2022-11-16T03:11:54.931Z,71.97
2022-11-16T03:14:25.356Z,73.60
2022-11-16T03:17:00.033Z,72.90
2022-11-16T03:19:34.858Z,78.95
2022-11-16T03:22:13.656Z,81.10
2022-11-16T03:24:41.338Z,75.68
2022-11-16T03:27:45.642Z,79.43
2022-11-16T03:30:19.142Z,75.43
2022-11-16T03:33:29.994Z,81.15
2022-11-16T03:35:56.517Z,85.53
2022-11-16T03:38:26.159Z,79.35
2022-11-16T03:40:56.153Z,83.47
2022-11-16T03:43:26.670Z,80.45
2022-11-16T03:45:54.250Z,82.10
2022-11-16T03:48:20.856Z,78.03
2022-11-16T03:50:47.673Z,81.38
2022-11-16T03:53:14.414Z,75.13
2022-11-16T03:55:43.467Z,82.43
2022-11-16T03:58:13.668Z,80.65
2022-11-16T04:00:40.291Z,73.20
2022-11-16T04:03:07.107Z,74.95
2022-11-16T04:05:52.391Z,73.93
2022-11-16T04:08:37.430Z,80.00
2022-11-16T04:11:22.672Z,78.10
2022-11-16T04:14:09.485Z,77.10
2022-11-16T04:16:54.827Z,79.13
2022-11-16T04:19:39.778Z,81.10
2022-11-16T04:22:34.421Z,79.00
2022-11-16T04:25:08.300Z,74.63
2022-11-16T04:27:53.714Z,85.43
2022-11-16T04:30:20.450Z,78.95
2022-11-16T04:33:06.025Z,81.75
2022-11-16T04:35:51.339Z,79.00
2022-11-16T04:38:17.913Z,78.07
2022-11-16T04:40:44.641Z,77.13
2022-11-16T04:43:11.322Z,74.88
2022-11-16T04:45:56.380Z,78.45
2022-11-16T04:48:22.957Z,76.15
2022-11-16T04:50:49.522Z,79.93
2022-11-16T04:53:16.555Z,85.18
2022-11-16T04:55:43.215Z,82.05
2022-11-16T04:58:09.795Z,76.40
2022-11-16T05:00:36.454Z,77.03
2022-11-16T05:03:04.954Z,74.97
2022-11-16T05:05:31.654Z,75.03
2022-11-16T05:07:58.342Z,74.72
2022-11-16T05:10:24.948Z,80.82
2022-11-16T05:12:51.551Z,74.50
2022-11-16T05:15:19.816Z,74.40
2022-11-16T05:17:47.446Z,76.82
2022-11-16T05:20:33.504Z,76.50
2022-11-16T05:23:00.290Z,78.72
2022-11-16T05:25:26.814Z,75.65
2022-11-16T05:27:53.779Z,75.38
2022-11-16T05:30:20.524Z,81.93
2022-11-16T05:32:47.303Z,75.72
2022-11-16T05:35:14.072Z,76.93
2022-11-16T05:37:40.693Z,74.30
2022-11-16T05:40:07.810Z,76.38
2022-11-16T05:42:34.582Z,74.68
2022-11-16T05:45:01.494Z,75.18
2022-11-16T05:47:28.173Z,78.40
2022-11-16T05:49:54.677Z,73.88
2022-11-16T05:52:21.348Z,78.68
2022-11-16T05:54:47.981Z,79.72
2022-11-16T05:57:15.431Z,75.95
2022-11-16T05:59:42.550Z,69.43
2022-11-16T06:02:09.081Z,72.47
2022-11-16T06:04:35.654Z,80.47
2022-11-16T06:07:02.450Z,74.90
2022-11-16T06:09:29.004Z,76.05
2022-11-16T06:11:55.585Z,77.00
2022-11-16T06:14:22.160Z,76.18
2022-11-16T06:16:48.765Z,74.68
2022-11-16T06:19:15.431Z,72.95
2022-11-16T06:21:42.064Z,65.85
2022-11-16T06:24:09.627Z,66.65
2022-11-16T06:26:37.218Z,62.40
2022-11-16T06:29:04.592Z,61.25
2022-11-16T06:31:31.549Z,59.85
2022-11-16T06:33:58.145Z,59.10
2022-11-16T06:36:24.804Z,57.75
2022-11-16T06:38:51.551Z,60.05
2022-11-16T06:41:18.349Z,56.90
2022-11-16T06:43:45.043Z,56.28
2022-11-16T06:46:11.891Z,55.70
2022-11-16T06:48:38.689Z,56.95
2022-11-16T06:51:05.580Z,55.22
2022-11-16T06:53:32.292Z,53.35
2022-11-16T06:56:06.307Z,52.88
2022-11-16T06:58:33.939Z,53.60
2022-11-16T07:01:11.717Z,53.25
2022-11-16T07:03:38.544Z,53.90
2022-11-16T07:06:09.866Z,53.65
2022-11-16T07:08:36.950Z,52.63
2022-11-16T07:11:05.324Z,53.05
2022-11-16T07:13:33.560Z,52.13
2022-11-16T07:16:11.704Z,53.33
2022-11-16T07:18:41.454Z,52.28
2022-11-16T07:21:16.819Z,53.67
2022-11-16T07:23:44.165Z,53.25
2022-11-16T07:26:11.413Z,50.85
2022-11-16T07:28:40.988Z,53.03
2022-11-16T07:31:13.992Z,50.17
2022-11-16T07:33:41.246Z,49.88
2022-11-16T07:36:13.273Z,52.92
2022-11-16T07:38:39.929Z,53.85
2022-11-16T07:41:09.413Z,50.33
2022-11-16T07:43:36.079Z,53.60
2022-11-16T07:46:45.311Z,54.13
2022-11-16T07:49:11.072Z,58.50
2022-11-16T07:51:38.078Z,54.67
2022-11-16T07:54:04.865Z,50.40
2022-11-16T07:56:31.450Z,51.10
2022-11-16T07:58:59.418Z,49.88
2022-11-16T08:01:26.110Z,52.95
2022-11-16T08:03:54.023Z,52.78
2022-11-16T08:06:25.062Z,52.60
2022-11-16T08:08:57.842Z,56.63
2022-11-16T08:11:25.314Z,58.60
2022-11-16T08:13:52.137Z,57.53
2022-11-16T08:16:20.914Z,58.10
2022-11-16T08:18:47.835Z,55.38
2022-11-16T08:21:17.085Z,54.55
2022-11-16T08:23:45.246Z,54.65
2022-11-16T08:26:17.138Z,56.17
2022-11-16T08:28:45.964Z,53.97
2022-11-16T08:31:18.610Z,51.65
2022-11-16T08:33:45.475Z,56.17
2022-11-16T08:36:17.355Z,55.28
2022-11-16T08:38:45.247Z,54.22
2022-11-16T08:41:12.453Z,56.65
2022-11-16T08:43:42.249Z,49.40
2022-11-16T08:46:09.893Z,43.97
2022-11-16T08:48:37.912Z,42.88
2022-11-16T08:53:59.040Z,45.70
2022-11-16T08:56:27.472Z,43.38
2022-11-16T08:58:58.374Z,43.85
2022-11-16T09:01:28.124Z,41.25
2022-11-16T09:03:55.192Z,41.00
2022-11-16T09:06:23.545Z,37.95
2022-11-16T09:08:50.451Z,40.58
2022-11-16T09:11:20.001Z,41.92
2022-11-16T09:13:48.710Z,41.35
2022-11-16T09:16:16.938Z,42.10
2022-11-16T09:18:46.448Z,43.13
2022-11-16T09:21:20.779Z,42.42
2022-11-16T09:23:48.439Z,39.67
2022-11-16T09:26:15.689Z,35.10
2022-11-16T09:28:42.651Z,37.88
2022-11-16T09:31:10.273Z,37.88
2022-11-16T09:33:37.994Z,39.25
2022-11-16T09:36:09.529Z,34.45
2022-11-16T09:39:13.865Z,35.83
2022-11-16T09:41:54.813Z,35.50
2022-11-16T09:44:51.695Z,37.30
2022-11-16T09:47:22.009Z,38.63
2022-11-16T09:49:58.093Z,39.33
2022-11-16T09:55:38.114Z,37.22
2022-11-16T09:58:14.640Z,36.92
2022-11-16T10:00:49.658Z,39.90
2022-11-16T10:03:16.557Z,37.47
2022-11-16T10:05:48.910Z,37.90
2022-11-16T10:08:43.242Z,38.65
2022-11-16T10:11:36.220Z,38.53
2022-11-16T10:14:21.587Z,39.78
2022-11-16T10:16:58.368Z,39.50
2022-11-16T10:19:57.505Z,40.08
2022-11-16T10:22:45.083Z,40.22
2022-11-16T10:25:26.145Z,39.25
2022-11-16T10:28:27.668Z,39.97
2022-11-16T10:31:10.573Z,36.75
2022-11-16T10:33:40.357Z,39.15
2022-11-16T10:36:14.108Z,39.00
2022-11-16T10:38:42.469Z,36.83
2022-11-16T10:41:37.471Z,39.08
2022-11-16T10:44:24.866Z,36.65
2022-11-16T10:47:12.431Z,37.35
2022-11-16T10:49:59.613Z,35.53
2022-11-16T10:52:26.625Z,31.75
2022-11-16T10:54:53.371Z,37.80
2022-11-16T10:57:20.278Z,37.15
2022-11-16T10:59:50.158Z,37.92
2022-11-16T11:02:37.375Z,33.47
2022-11-16T11:05:06.539Z,34.92
2022-11-16T11:07:36.121Z,30.30
2022-11-16T11:10:02.770Z,31.55
2022-11-16T11:12:38.520Z,32.95
2022-11-16T11:15:11.078Z,32.17
2022-11-16T11:17:40.707Z,31.88
2022-11-16T11:20:21.213Z,30.38
2022-11-16T11:22:56.781Z,29.88
2022-11-16T11:25:27.416Z,33.00
2022-11-16T11:28:19.442Z,31.17
2022-11-16T11:31:11.705Z,31.38
2022-11-16T11:33:44.191Z,31.35
2022-11-16T11:36:26.450Z,31.33
2022-11-16T11:38:56.139Z,31.15
2022-11-16T11:41:23.381Z,30.02
2022-11-16T11:44:06.586Z,30.27
2022-11-16T11:47:18.177Z,31.33
2022-11-16T11:49:33.927Z,30.67
2022-11-16T11:52:11.989Z,31.58
2022-11-16T11:54:46.098Z,30.35
2022-11-16T11:57:20.766Z,29.98
2022-11-16T11:59:48.339Z,30.48
2022-11-16T12:02:24.637Z,33.70
2022-11-16T12:05:23.382Z,30.75
2022-11-16T12:08:21.944Z,30.05
2022-11-16T12:11:03.409Z,29.85
2022-11-16T12:13:48.314Z,30.58
2022-11-16T12:16:35.004Z,30.70
2022-11-16T12:19:17.341Z,29.08
2022-11-16T12:21:56.359Z,29.42
2022-11-16T12:24:39.456Z,27.17
2022-11-16T12:27:27.470Z,32.35
2022-11-16T12:30:19.151Z,30.45
2022-11-16T12:33:15.134Z,30.35
2022-11-16T12:35:49.084Z,29.42
2022-11-16T12:38:23.095Z,30.52
2022-11-16T12:41:08.477Z,30.63
2022-11-16T12:43:59.062Z,30.25
2022-11-16T12:46:37.753Z,30.63
2022-11-16T12:49:29.636Z,32.03
2022-11-16T12:51:56.257Z,30.38
2022-11-16T12:55:24.231Z,30.08
2022-11-16T12:58:00.609Z,30.58
2022-11-16T13:00:29.834Z,29.63
2022-11-16T13:03:15.388Z,31.88
2022-11-16T13:05:56.922Z,32.63
2022-11-16T13:08:29.381Z,28.27
2022-11-16T13:11:02.760Z,31.17
2022-11-16T13:13:36.417Z,31.75
2022-11-16T13:16:05.639Z,30.70
2022-11-16T13:18:34.830Z,34.38
2022-11-16T13:21:05.490Z,36.65
2022-11-16T13:23:32.336Z,35.08
2022-11-16T13:26:10.392Z,35.35
2022-11-16T13:28:49.302Z,33.95
2022-11-16T13:31:27.785Z,33.33
2022-11-16T13:34:03.473Z,30.27
2022-11-16T13:36:45.224Z,28.65
2022-11-16T13:39:20.567Z,29.90
2022-11-16T13:42:07.326Z,29.17
2022-11-16T13:44:34.647Z,28.20
2022-11-16T13:47:05.008Z,27.88
2022-11-16T13:49:41.018Z,27.63
2022-11-16T13:52:23.752Z,26.65
2022-11-16T13:54:55.662Z,27.92
2022-11-16T13:57:33.439Z,26.25
2022-11-16T14:00:03.013Z,26.13
2022-11-16T14:02:33.674Z,26.52
2022-11-16T14:05:05.100Z,24.55
2022-11-16T14:07:31.700Z,24.63
2022-11-16T14:09:59.464Z,27.40
2022-11-16T14:12:38.273Z,26.13
2022-11-16T14:15:19.194Z,26.27
2022-11-16T14:17:50.879Z,26.45
2022-11-16T14:20:37.766Z,26.25
2022-11-16T14:23:13.424Z,24.77
2022-11-16T14:26:03.214Z,25.17
2022-11-16T14:29:07.471Z,26.15
2022-11-16T14:31:56.081Z,25.92
2022-11-16T14:34:25.562Z,26.30
2022-11-16T14:36:53.140Z,26.67
2022-11-16T14:39:39.034Z,28.52
2022-11-16T14:42:27.376Z,26.48
2022-11-16T14:45:02.595Z,26.17
2022-11-16T14:47:32.536Z,27.08
2022-11-16T14:49:59.233Z,27.00
2022-11-16T14:52:39.930Z,29.40
2022-11-16T14:55:09.000Z,28.58
2022-11-16T14:57:36.069Z,28.73
2022-11-16T15:00:18.652Z,29.70
2022-11-16T15:02:51.895Z,29.15
2022-11-16T15:05:22.729Z,28.52
2022-11-16T15:07:52.546Z,30.35
2022-11-16T15:10:25.817Z,28.33
2022-11-16T15:12:55.045Z,30.70
2022-11-16T15:15:26.855Z,29.98
2022-11-16T15:18:07.683Z,30.10
2022-11-16T15:20:37.685Z,29.77
2022-11-16T15:23:12.862Z,28.90
2022-11-16T15:26:05.831Z,29.15
2022-11-16T15:28:34.026Z,28.38
2022-11-16T15:31:05.936Z,27.77
2022-11-16T15:33:36.883Z,26.50
2022-11-16T15:36:24.934Z,28.83
2022-11-16T15:38:55.285Z,29.13
2022-11-16T15:41:23.822Z,29.77
2022-11-16T15:44:13.460Z,30.00
2022-11-16T15:46:43.115Z,30.17
2022-11-16T15:49:32.272Z,31.17
2022-11-16T15:51:59.900Z,32.10
2022-11-16T15:54:29.550Z,32.58
2022-11-16T15:57:05.714Z,30.83
2022-11-16T15:59:34.698Z,33.25
2022-11-16T16:02:02.137Z,33.53
2022-11-16T16:04:29.412Z,31.60
2022-11-16T16:06:58.040Z,33.97
2022-11-16T16:10:10.843Z,34.60
2022-11-16T16:12:47.929Z,32.35
2022-11-16T16:15:25.229Z,31.73
2022-11-16T16:17:53.935Z,32.35
2022-11-16T16:20:24.049Z,34.10
2022-11-16T16:22:51.897Z,32.75
2022-11-16T16:25:33.429Z,31.98
2022-11-16T16:28:00.522Z,31.15
2022-11-16T16:30:29.369Z,33.38
2022-11-16T16:32:56.310Z,32.58
2022-11-16T16:35:25.129Z,34.35
2022-11-16T16:37:57.686Z,32.70
2022-11-16T16:40:24.722Z,34.90
2022-11-16T16:42:52.334Z,35.65
2022-11-16T16:45:22.021Z,34.53
2022-11-16T16:47:49.134Z,42.67
2022-11-16T16:50:16.598Z,44.60
2022-11-16T16:52:43.270Z,53.08
2022-11-16T16:55:09.970Z,40.13
2022-11-16T16:57:36.499Z,39.53
2022-11-16T17:00:04.188Z,42.20
2022-11-16T17:02:30.913Z,42.88
2022-11-16T17:04:57.566Z,43.70
2022-11-16T17:07:24.208Z,44.33
2022-11-16T17:09:50.928Z,43.00
2022-11-16T17:12:17.510Z,42.10
2022-11-16T17:14:51.279Z,46.72
2022-11-16T17:17:24.487Z,245.32
2022-11-16T17:19:51.918Z,41.47
2022-11-16T17:22:19.661Z,39.92
2022-11-16T17:24:46.709Z,41.25
2022-11-16T17:27:13.789Z,41.00
2022-11-16T17:29:40.601Z,39.92
2022-11-16T17:32:07.328Z,38.80
2022-11-16T17:34:34.017Z,40.97
2022-11-16T17:37:00.694Z,40.95
2022-11-16T17:39:27.214Z,42.38
2022-11-16T17:41:53.836Z,41.85
2022-11-16T17:44:22.175Z,43.05
2022-11-16T17:46:49.396Z,43.00
2022-11-16T17:49:16.079Z,41.78
2022-11-16T17:51:42.672Z,41.53
2022-11-16T17:54:09.473Z,42.95
2022-11-16T17:56:36.078Z,42.38
2022-11-16T17:59:02.656Z,43.42
2022-11-16T18:01:29.714Z,41.67
2022-11-16T18:03:56.340Z,41.97
2022-11-16T18:06:25.418Z,43.78
2022-11-16T18:08:52.804Z,45.13
2022-11-16T18:11:21.921Z,42.67
2022-11-16T18:13:52.980Z,43.70
2022-11-16T18:16:21.400Z,42.08
2022-11-16T18:18:49.005Z,43.63
2022-11-16T18:21:20.592Z,43.88
2022-11-16T18:23:48.186Z,44.83
2022-11-16T18:26:17.321Z,46.83
2022-11-16T18:28:47.732Z,46.25
2022-11-16T18:31:17.791Z,45.60
2022-11-16T18:33:44.723Z,41.33
2022-11-16T18:36:12.805Z,41.60
2022-11-16T18:38:39.796Z,43.75
2022-11-16T18:41:13.840Z,40.90
2022-11-16T18:43:55.530Z,41.22
2022-11-16T18:46:27.580Z,41.78
2022-11-16T18:48:55.069Z,40.97
2022-11-16T18:51:22.812Z,41.28
2022-11-16T18:53:50.027Z,40.50
2022-11-16T18:56:17.710Z,41.95
2022-11-16T18:58:52.906Z,41.50
2022-11-16T19:01:23.557Z,44.50
2022-11-16T19:03:52.063Z,43.47
2022-11-16T19:06:19.269Z,38.85
2022-11-16T19:08:52.144Z,41.03
2022-11-16T19:11:22.830Z,38.78
2022-11-16T19:13:56.417Z,34.53
2022-11-16T19:16:24.199Z,36.72
2022-11-16T19:18:50.768Z,38.78
2022-11-16T19:21:21.973Z,38.67
2022-11-16T19:23:53.412Z,33.92
2022-11-16T19:26:22.755Z,35.92
2022-11-16T19:28:51.070Z,36.53
2022-11-16T19:31:29.070Z,41.33
2022-11-16T19:33:58.087Z,38.65
2022-11-16T19:36:26.202Z,39.00
2022-11-16T19:38:53.176Z,39.03
2022-11-16T19:41:23.224Z,37.92
2022-11-16T19:43:52.803Z,38.65
2022-11-16T19:46:24.499Z,40.42
2022-11-16T19:48:51.862Z,41.33
2022-11-16T19:51:24.005Z,40.03
2022-11-16T19:53:50.911Z,41.63
2022-11-16T19:56:19.965Z,39.20
2022-11-16T19:58:46.953Z,40.67
2022-11-16T20:01:18.903Z,43.47
2022-11-16T20:03:46.757Z,38.70
2022-11-16T20:06:34.709Z,40.55
2022-11-16T20:09:08.578Z,41.22
2022-11-16T20:11:37.612Z,40.72
2022-11-16T20:14:08.275Z,42.42
2022-11-16T20:16:40.689Z,41.47
2022-11-16T20:19:09.889Z,42.88
2022-11-16T20:21:41.606Z,43.97
2022-11-16T20:24:12.048Z,43.97
2022-11-16T20:26:43.851Z,43.00
2022-11-16T20:29:15.021Z,39.55
2022-11-16T20:31:44.346Z,42.10
2022-11-16T20:34:17.654Z,41.38
2022-11-16T20:36:46.603Z,43.70
2022-11-16T20:39:14.722Z,42.33
2022-11-16T20:41:42.734Z,40.58
2022-11-16T20:44:16.375Z,42.88
2022-11-16T20:46:45.138Z,41.90
2022-11-16T20:49:11.987Z,41.17
2022-11-16T20:51:38.670Z,41.78
2022-11-16T20:54:05.618Z,39.70
2022-11-16T20:56:32.435Z,40.30
2022-11-16T20:58:59.629Z,39.78
2022-11-16T21:01:33.299Z,41.00
2022-11-16T21:04:03.166Z,40.15
2022-11-16T21:06:30.483Z,40.15
2022-11-16T21:08:57.307Z,37.88
2022-11-16T21:11:26.427Z,38.67
2022-11-16T21:14:11.472Z,39.00
2022-11-16T21:16:38.819Z,40.50
2022-11-16T21:19:06.171Z,39.28
2022-11-16T21:21:32.954Z,39.17
2022-11-16T21:23:59.819Z,39.75
2022-11-16T21:26:31.420Z,37.90
2022-11-16T21:28:59.137Z,40.55
2022-11-16T21:31:28.026Z,36.30
2022-11-16T21:33:54.942Z,31.80
2022-11-16T21:36:24.124Z,32.70
2022-11-16T21:38:51.819Z,36.00
2022-11-16T21:41:20.754Z,32.28
2022-11-16T21:43:47.711Z,29.75
2022-11-16T21:46:16.772Z,29.63
2022-11-16T21:48:43.995Z,31.52
2022-11-16T21:51:13.130Z,29.52
2022-11-16T21:53:40.165Z,28.00
2022-11-16T21:56:11.561Z,27.83
2022-11-16T21:58:39.511Z,28.20
2022-11-16T22:01:06.557Z,28.98
2022-11-16T22:03:33.564Z,28.05
2022-11-16T22:06:21.398Z,29.70
2022-11-16T22:08:48.708Z,28.02
2022-11-16T22:11:16.441Z,28.20
2022-11-16T22:13:43.845Z,29.10
2022-11-16T22:16:13.522Z,26.55
2022-11-16T22:18:40.226Z,28.90
2022-11-16T22:21:07.693Z,26.77
2022-11-16T22:23:35.093Z,27.10
2022-11-16T22:26:10.657Z,26.40
2022-11-16T22:28:37.904Z,28.17
2022-11-16T22:31:12.665Z,27.15
2022-11-16T22:33:39.861Z,27.58
2022-11-16T22:36:10.326Z,27.15
2022-11-16T22:38:37.495Z,27.98
2022-11-16T22:41:04.786Z,26.38
2022-11-16T22:43:32.305Z,25.35
2022-11-16T22:46:01.306Z,27.48
2022-11-16T22:48:37.038Z,26.10
2022-11-16T22:51:18.606Z,25.00
2022-11-16T22:53:45.208Z,24.92
2022-11-16T22:56:12.763Z,25.08
2022-11-16T22:58:41.010Z,25.13
2022-11-16T23:01:09.126Z,27.48
2022-11-16T23:03:36.632Z,26.95
2022-11-16T23:06:05.125Z,27.08
2022-11-16T23:08:32.289Z,25.65
2022-11-16T23:11:27.603Z,25.40
2022-11-16T23:14:13.532Z,26.50
2022-11-16T23:16:41.024Z,26.52
2022-11-16T23:19:28.476Z,26.52
2022-11-16T23:22:14.263Z,25.67
2022-11-16T23:24:59.851Z,26.75
2022-11-16T23:27:33.342Z,27.90
2022-11-16T23:30:02.115Z,27.67
2022-11-16T23:32:29.519Z,27.40
2022-11-16T23:34:57.262Z,26.63
2022-11-16T23:37:24.282Z,26.40
2022-11-16T23:39:50.992Z,28.88
2022-11-16T23:42:36.255Z,29.08
2022-11-16T23:45:03.603Z,29.10
2022-11-16T23:47:30.340Z,32.50
2022-11-16T23:49:56.889Z,32.20
2022-11-16T23:52:23.486Z,33.22
2022-11-16T23:54:50.168Z,32.38
2022-11-16T23:57:16.886Z,33.25
2022-11-16T23:59:43.405Z,33.38
